| Date | Time | Temp. (oF) | Dew Point (oF) | Rel. Hum. (%) | Press. (in.) | Wind Dir. | Wind Speed (mph) | Hourly Rainfall (in.) |
|
|---|---|---|---|---|---|---|---|---|---|
| 1 | 04/07 | 00:00 | 44 | 31 | 61 | 29.35 | WNW | 8 | 0.00 |
| 2 | 04/06 | 23:00 | 46 | 32 | 60 | 29.35 | NW | 10 | 0.00 |
| 3 | 04/06 | 22:00 | 47 | 34 | 62 | 29.34 | W | 7 | 0.00 |
| 4 | 04/06 | 21:00 | 49 | 37 | 65 | 29.33 | W | 4 | 0.00 |
| 5 | 04/06 | 20:00 | 52 | 39 | 62 | 29.28 | NW | 5 | 0.00 |
| 6 | 04/06 | 19:00 | 55 | 48 | 78 | 29.24 | NW | 7 | 0.00 |
| 7 | 04/06 | 18:00 | 55 | 48 | 79 | 29.23 | NW | 2 | 0.00 |
| 8 | 04/06 | 17:00 | 54 | 48 | 83 | 29.24 | WNW | 5 | 0.00 |
| 9 | 04/06 | 16:00 | 57 | 52 | 85 | 29.23 | NW | 5 | 0.00 |
| 10 | 04/06 | 15:00 | 57 | 51 | 82 | 29.24 | SSW | 0 | 0.00 |
| 11 | 04/06 | 14:00 | 55 | 51 | 89 | 29.22 | NNE | 4 | 0.00 |
| 12 | 04/06 | 13:00 | 53 | 51 | 95 | 29.34 | SSW | 5 | 0.01 |
| 13 | 04/06 | 12:00 | 53 | 50 | 92 | 29.30 | ESE | 8 | 0.00 |
| 14 | 04/06 | 11:00 | 51 | 48 | 91 | 29.39 | S | 3 | 0.01 |
| 15 | 04/06 | 10:00 | 52 | 46 | 83 | 29.43 | ESE | 4 | 0.01 |
| 16 | 04/06 | 09:00 | 51 | 46 | 83 | 29.46 | E | 0 | 0.00 |
| 17 | 04/06 | 08:00 | 50 | 45 | 83 | 29.47 | NE | 2 | 0.00 |
| 18 | 04/06 | 07:00 | 49 | 44 | 84 | 29.44 | NNE | 6 | 0.00 |
| 19 | 04/06 | 06:00 | 49 | 44 | 83 | 29.47 | SSE | 1 | 0.00 |
| 20 | miss | miss | miss | miss | miss | miss | miss | miss | |
| 21 | 04/06 | 05:24 | 50 | 42 | 76 | 29.49 | ESE | 3 | 0.00 |
| 22 | miss | miss | miss | miss | miss | miss | miss | miss | |
| 23 | 04/06 | 05:22 | 50 | 42 | 76 | 29.49 | SSE | 4 | 0.00 |
| 24 | miss | miss | miss | miss | miss | miss | miss | miss | |
| 25 | 04/06 | 05:20 | 50 | 42 | 75 | 29.49 | SSE | 1 | 0.00 |
| 26 | miss | miss | miss | miss | miss | miss | miss | miss | |
| 27 | 04/06 | 05:20 | 50 | 42 | 75 | 29.49 | SSE | 1 | 0.00 |
| 28 | miss | miss | miss | miss | miss | miss | miss | miss | |
| 29 | 04/06 | 05:20 | 50 | 42 | 75 | 29.49 | SSE | 1 | 0.00 |
| 30 | miss | miss | miss | miss | miss | miss | miss | miss | |
| 31 | 04/06 | 05:20 | 50 | 42 | 75 | 29.49 | SSE | 1 | 0.00 |
| 32 | miss | miss | miss | miss | miss | miss | miss | miss | |
| 33 | 04/06 | 05:20 | 50 | 42 | 75 | 29.49 | SSE | 1 | 0.00 |
| 34 | miss | miss | miss | miss | miss | miss | miss | miss | |
| 35 | 04/06 | 05:20 | 50 | 42 | 75 | 29.49 | SSE | 1 | 0.00 |
| 36 | miss | miss | miss | miss | miss | miss | miss | miss | |
| 37 | 04/06 | 05:20 | 50 | 42 | 75 | 29.49 | SSE | 1 | 0.00 |
| 38 | miss | miss | miss | miss | miss | miss | miss | miss | |
| 39 | 04/06 | 05:20 | 50 | 42 | 75 | 29.49 | SSE | 1 | 0.00 |
| 40 | miss | miss | miss | miss | miss | miss | miss | miss | |
| 41 | 04/06 | 05:20 | 50 | 42 | 75 | 29.49 | SSE | 1 | 0.00 |
| 42 | miss | miss | miss | miss | miss | miss | miss | miss | |
| 43 | 04/06 | 05:20 | 50 | 42 | 75 | 29.49 | SSE | 1 | 0.00 |
| 44 | 04/06 | 05:00 | 50 | 41 | 73 | 29.47 | ENE | 8 | 0.00 |
| 45 | 04/06 | 04:00 | 51 | 40 | 66 | 29.50 | SE | 5 | 0.00 |
| 46 | 04/06 | 03:00 | 52 | 38 | 59 | 29.53 | SE | 9 | 0.00 |
| 47 | 04/06 | 02:00 | 55 | 38 | 53 | 29.58 | SE | 7 | 0.00 |
| 48 | 04/06 | 01:00 | 55 | 36 | 50 | 29.62 | SE | 4 | 0.00 |
| 49 | 04/06 | 00:00 | 53 | 36 | 53 | 29.64 | E | 3 | -0.03 |
| 50 | 04/05 | 23:00 | 52 | 34 | 52 | 29.67 | ESE | 4 | 0.00 |
| 51 | 04/05 | 22:00 | 55 | 32 | 43 | 29.70 | SE | 1 | 0.00 |
| 52 | 04/05 | 21:00 | 57 | 33 | 41 | 29.70 | S | 3 | 0.00 |
| 53 | 04/05 | 20:00 | 61 | 32 | 34 | 29.70 | SSW | 2 | 0.00 |
| 54 | 04/05 | 19:00 | 65 | 33 | 31 | 29.71 | SW | 5 | 0.00 |
| 55 | 04/05 | 18:00 | 67 | 31 | 27 | 29.71 | WSW | 0 | 0.00 |
| 56 | 04/05 | 17:00 | 67 | 31 | 27 | 29.73 | WSW | 7 | 0.00 |
| 57 | 04/05 | 16:00 | 66 | 32 | 29 | 29.74 | WNW | 4 | 0.00 |
| 58 | 04/05 | 15:00 | 64 | 32 | 31 | 29.77 | NNW | 4 | 0.00 |
| 59 | 04/05 | 14:00 | 62 | 34 | 36 | 29.80 | SSW | 5 | 0.00 |
| 60 | 04/05 | 13:00 | 60 | 32 | 36 | 29.83 | SW | 8 | 0.00 |
| 61 | 04/05 | 12:00 | 57 | 32 | 40 | 29.87 | NNW | 7 | 0.00 |
| 62 | 04/05 | 11:00 | 54 | 30 | 41 | 29.88 | N | 7 | 0.00 |
| 63 | 04/05 | 10:00 | 51 | 31 | 47 | 29.90 | NW | 11 | 0.00 |
| 64 | 04/05 | 09:00 | 49 | 31 | 50 | 29.91 | NNW | 8 | 0.00 |
| 65 | 04/05 | 08:00 | 45 | 31 | 59 | 29.90 | WNW | 7 | 0.00 |
| 66 | 04/05 | 07:00 | 42 | 29 | 61 | 29.89 | WNW | 4 | 0.00 |
| 67 | 04/05 | 06:00 | 42 | 29 | 60 | 29.88 | NW | 3 | 0.00 |
| 68 | 04/05 | 05:00 | 43 | 29 | 58 | 29.86 | WSW | 3 | 0.00 |
| 69 | 04/05 | 04:00 | 44 | 28 | 55 | 29.84 | NW | 7 | 0.00 |
| 70 | 04/05 | 03:00 | 45 | 28 | 52 | 29.85 | W | 12 | 0.00 |
| 71 | 04/05 | 02:00 | 46 | 28 | 50 | 29.84 | NW | 9 | 0.00 |
| 72 | 04/05 | 01:00 | 46 | 27 | 49 | 29.84 | NW | 10 | 0.00 |
| 73 | 04/05 | 00:00 | 48 | 28 | 46 | 29.83 | NW | 5 | 0.00 |